Time;durP1;ratioP1;P1;durP2;ratioP2;P2;SDS_P1;SDS_P2;PMS_P1;PMS_P2;Temp;Humidity;BMP_temperature;BMP_pressure;BME280_temperature;BME280_humidity;BME280_pressure;Samples;Min_cycle;Max_cycle;Signal;HPM_P1;HPM_P2
2020/12/01 00:00:13;;;;;;;31.90;21.27;;;;;;;-0.34;98.02;98997.84;4328387;33;20188;-79
2020/12/01 00:02:40;;;;;;;29.80;21.80;;;;;;;-0.40;99.13;99003.19;4327646;33;20172;-79
2020/12/01 00:05:08;;;;;;;30.83;20.93;;;;;;;-0.41;99.68;98993.69;4328040;33;20197;-79
2020/12/01 00:07:35;;;;;;;34.30;23.03;;;;;;;-0.43;100.00;98992.88;4327717;33;20196;-80
2020/12/01 00:10:03;;;;;;;35.60;22.53;;;;;;;-0.47;100.00;98988.63;4327594;33;20655;-81
2020/12/01 00:12:30;;;;;;;34.93;22.47;;;;;;;-0.49;100.00;98980.03;4325845;33;20504;-80
2020/12/01 00:14:57;;;;;;;31.77;22.87;;;;;;;-0.38;100.00;98970.25;4331611;33;20194;-79
2020/12/01 00:17:25;;;;;;;33.20;22.60;;;;;;;-0.24;100.00;98961.22;4329357;33;20535;-80
2020/12/01 00:19:52;;;;;;;32.27;22.80;;;;;;;-0.18;100.00;98963.69;4326025;33;20164;-80
2020/12/01 00:22:20;;;;;;;33.53;21.73;;;;;;;-0.16;100.00;98955.84;4329275;33;20191;-80
2020/12/01 00:24:47;;;;;;;35.30;21.20;;;;;;;-0.12;100.00;98941.87;4325876;33;20195;-80
2020/12/01 00:27:14;;;;;;;33.90;23.27;;;;;;;-0.13;100.00;98937.56;4326931;33;20230;-80
2020/12/01 00:29:41;;;;;;;29.67;20.93;;;;;;;-0.13;100.00;98934.97;4328445;33;20497;-79
2020/12/01 00:32:09;;;;;;;30.73;21.70;;;;;;;-0.09;100.00;98923.63;4327242;33;20191;-79
2020/12/01 00:34:36;;;;;;;30.30;20.30;;;;;;;-0.13;100.00;98924.59;4327531;33;20180;-80
2020/12/01 00:37:04;;;;;;;33.30;23.03;;;;;;;-0.06;100.00;98907.97;4325431;33;20265;-80
2020/12/01 00:39:31;;;;;;;32.50;21.83;;;;;;;-0.05;100.00;98907.06;4320819;33;20181;-79
2020/12/01 00:41:58;;;;;;;30.17;21.37;;;;;;;0.03;100.00;98901.69;4327463;33;20180;-79
2020/12/01 00:44:25;;;;;;;34.77;22.03;;;;;;;0.07;100.00;98890.28;4325200;33;20537;-79
2020/12/01 00:46:53;;;;;;;37.53;23.83;;;;;;;0.09;100.00;98878.97;4327223;33;20207;-79
2020/12/01 00:49:20;;;;;;;33.57;22.47;;;;;;;0.08;100.00;98877.28;4327978;33;20600;-79
2020/12/01 00:51:50;;;;;;;33.63;20.70;;;;;;;0.10;100.00;98872.87;4333113;33;20184;-79
2020/12/01 00:54:18;;;;;;;39.00;23.13;;;;;;;0.20;100.00;98869.12;4334660;33;20199;-79
2020/12/01 00:56:45;;;;;;;39.40;23.93;;;;;;;0.19;100.00;98862.25;4334258;33;20164;-79
2020/12/01 00:59:12;;;;;;;35.83;23.53;;;;;;;0.20;100.00;98863.94;4335747;33;20168;-80
2020/12/01 01:01:40;;;;;;;37.17;23.27;;;;;;;0.19;100.00;98862.25;4323019;33;20183;-80
2020/12/01 01:04:07;;;;;;;38.67;23.53;;;;;;;0.26;100.00;98852.50;4338663;33;20180;-81
2020/12/01 01:06:34;;;;;;;37.80;24.23;;;;;;;0.21;100.00;98834.47;4339692;33;20151;-81
2020/12/01 01:09:04;;;;;;;36.63;23.10;;;;;;;0.29;100.00;98842.03;4341435;33;20163;-82
2020/12/01 01:11:51;;;;;;;37.37;23.50;;;;;;;0.32;100.00;98832.41;4343436;33;20207;-82
2020/12/01 01:14:18;;;;;;;35.17;23.67;;;;;;;0.35;100.00;98824.50;4333096;33;20144;-81
2020/12/01 01:16:45;;;;;;;36.17;22.77;;;;;;;0.40;100.00;98816.56;4334330;33;20224;-82
2020/12/01 01:19:37;;;;;;;35.70;22.53;;;;;;;0.38;100.00;98808.81;4331429;33;20271;-83
2020/12/01 01:22:04;;;;;;;33.70;21.43;;;;;;;0.40;100.00;98817.44;4342419;33;20184;-83
2020/12/01 01:24:32;;;;;;;37.10;22.57;;;;;;;0.46;100.00;98822.44;4350158;33;20153;-82
2020/12/01 01:27:03;;;;;;;33.30;22.30;;;;;;;0.52;100.00;98814.47;4345569;33;20148;-83
2020/12/01 01:29:30;;;;;;;33.87;21.87;;;;;;;0.60;100.00;98819.44;4353556;33;20129;-83
2020/12/01 01:31:57;;;;;;;32.57;20.40;;;;;;;0.62;100.00;98809.00;4353097;33;20162;-83
2020/12/01 01:34:24;;;;;;;31.43;20.53;;;;;;;0.68;100.00;98803.56;4351676;33;20188;-82
2020/12/01 01:39:37;;;;;;;32.33;21.70;;;;;;;0.76;100.00;98806.81;4352285;33;20187;-83
2020/12/01 01:42:15;;;;;;;28.47;19.00;;;;;;;0.75;100.00;98805.97;4352483;32;20212;-83
2020/12/01 01:44:43;;;;;;;33.70;20.77;;;;;;;0.81;100.00;98815.31;4353032;33;20152;-82
2020/12/01 01:47:21;;;;;;;28.80;19.13;;;;;;;0.85;100.00;98803.91;4352262;32;20248;-82
2020/12/01 01:50:33;;;;;;;34.33;21.93;;;;;;;0.88;100.00;98798.59;4322008;33;20301;-83
2020/12/01 01:53:00;;;;;;;31.03;20.37;;;;;;;0.88;100.00;98802.06;4353241;33;20192;-83
2020/12/01 01:55:28;;;;;;;29.60;19.57;;;;;;;0.92;100.00;98797.63;4351917;33;20164;-83
2020/12/01 01:58:05;;;;;;;26.93;18.03;;;;;;;0.96;100.00;98794.00;4351743;33;20203;-83
2020/12/01 02:04:01;;;;;;;28.10;17.17;;;;;;;1.01;100.00;98781.72;4344664;33;20229;-83
2020/12/01 02:07:11;;;;;;;35.27;20.33;;;;;;;1.07;100.00;98776.28;4348489;33;20261;-83
2020/12/01 02:09:43;;;;;;;30.47;20.20;;;;;;;1.07;100.00;98765.87;4333885;33;20201;-82
2020/12/01 02:12:14;;;;;;;31.43;20.50;;;;;;;0.89;100.00;98761.28;4343788;33;20179;-83
2020/12/01 02:17:44;;;;;;;33.70;20.57;;;;;;;0.85;100.00;98746.69;4332047;33;20169;-83
2020/12/01 02:20:56;;;;;;;34.40;21.23;;;;;;;0.84;100.00;98743.22;4333302;33;20182;-83
2020/12/01 02:23:24;;;;;;;32.37;19.80;;;;;;;0.83;100.00;98735.47;4333326;33;20183;-82
2020/12/01 02:25:51;;;;;;;34.07;21.57;;;;;;;0.81;100.00;98737.28;4347109;33;20158;-83
2020/12/01 02:28:22;;;;;;;35.47;21.47;;;;;;;0.79;100.00;98731.25;4348360;33;20158;-83
2020/12/01 02:31:35;;;;;;;37.27;22.13;;;;;;;0.61;100.00;98724.94;4347577;33;20179;-83
2020/12/01 02:34:05;;;;;;;35.57;21.57;;;;;;;0.51;100.00;98719.16;4347112;33;20181;-82
2020/12/01 02:42:52;;;;;;;35.97;21.60;;;;;;;0.84;100.00;98693.81;4328034;33;20144;-83
2020/12/01 02:45:20;;;;;;;35.17;21.23;;;;;;;0.80;100.00;98688.75;4333991;33;20138;-82
2020/12/01 02:48:21;;;;;;;28.33;18.77;;;;;;;0.81;100.00;98675.72;4335365;33;20174;-82
2020/12/01 02:50:48;;;;;;;34.47;20.87;;;;;;;0.86;100.00;98657.34;4333948;33;20145;-82
2020/12/01 02:53:15;;;;;;;35.40;21.70;;;;;;;0.80;100.00;98658.41;4332581;33;20168;-82
2020/12/01 02:55:53;;;;;;;34.27;21.27;;;;;;;0.77;100.00;98644.66;4330507;33;20170;-84
2020/12/01 03:26:48;;;;;;;25.23;16.20;;;;;;;1.03;100.00;98598.63;4321231;33;20197;-80
2020/12/01 03:32:39;;;;;;;26.53;16.97;;;;;;;1.14;100.00;98588.69;4324624;33;20177;-81
2020/12/01 03:35:07;;;;;;;29.30;18.80;;;;;;;1.14;100.00;98585.22;4322385;33;20159;-81
2020/12/01 03:37:34;;;;;;;25.83;16.73;;;;;;;1.18;100.00;98581.59;4322397;33;20195;-81
2020/12/01 04:33:41;;;;;;;26.87;15.20;;;;;;;1.51;100.00;98543.91;4354473;32;20739;-76
2020/12/01 04:36:09;;;;;;;22.17;14.33;;;;;;;1.56;100.00;98546.34;4328393;33;20183;-79
2020/12/01 04:38:36;;;;;;;18.93;13.00;;;;;;;1.51;100.00;98536.09;4329199;33;20231;-79
2020/12/01 04:41:04;;;;;;;20.83;13.87;;;;;;;1.55;100.00;98529.84;4326443;33;20687;-77
2020/12/01 04:43:34;;;;;;;23.20;16.17;;;;;;;1.62;100.00;98536.53;4331050;33;20163;-78
2020/12/01 04:46:03;;;;;;;22.47;14.87;;;;;;;1.54;100.00;98528.19;4329606;33;20178;-79
2020/12/01 04:48:45;;;;;;;20.37;14.20;;;;;;;1.57;100.00;98533.25;4329614;33;20210;-79
2020/12/01 04:51:40;;;;;;;23.90;15.03;;;;;;;1.56;100.00;98528.09;4331110;33;20167;-77
2020/12/01 04:55:00;;;;;;;25.03;15.97;;;;;;;1.54;100.00;98528.19;4328432;33;20186;-79
2020/12/01 04:58:00;;;;;;;26.30;15.30;;;;;;;1.42;100.00;98533.00;4296381;33;20180;-80
2020/12/01 05:00:35;;;;;;;28.80;16.03;;;;;;;1.34;100.00;98528.09;4290071;33;20227;-80
2020/12/01 05:03:30;;;;;;;30.07;16.67;;;;;;;1.33;100.00;98526.38;4322984;33;20205;-80
2020/12/01 05:06:19;;;;;;;26.40;16.10;;;;;;;1.25;100.00;98520.63;4314688;33;20163;-80
2020/12/01 05:08:56;;;;;;;27.27;15.77;;;;;;;1.22;100.00;98520.72;4315923;33;20175;-79
2020/12/01 05:11:32;;;;;;;30.73;17.00;;;;;;;1.20;100.00;98527.75;4331036;33;20603;-80
2020/12/01 05:14:06;;;;;;;28.90;17.10;;;;;;;1.11;100.00;98528.09;4326938;33;20179;-79
2020/12/01 05:16:46;;;;;;;32.13;17.03;;;;;;;1.07;100.00;98529.94;4326416;33;20168;-80
2020/12/01 05:19:39;;;;;;;34.93;18.37;;;;;;;1.10;100.00;98521.19;4326548;33;20160;-80
2020/12/01 05:22:08;;;;;;;34.13;17.03;;;;;;;1.08;100.00;98530.81;4340561;33;20191;-80
2020/12/01 05:24:37;;;;;;;34.20;18.33;;;;;;;1.02;100.00;98528.44;4344574;33;20200;-79
2020/12/01 05:27:05;;;;;;;37.47;18.20;;;;;;;1.01;100.00;98532.78;4344371;33;20910;-80
2020/12/01 05:29:32;;;;;;;31.43;16.63;;;;;;;1.06;100.00;98524.81;4347165;33;20168;-80
2020/12/01 05:31:59;;;;;;;36.83;17.83;;;;;;;1.05;100.00;98523.13;4344444;33;20176;-80
2020/12/01 05:34:26;;;;;;;39.13;19.47;;;;;;;1.03;100.00;98524.94;4320555;33;20349;-80
2020/12/01 05:36:54;;;;;;;39.57;18.27;;;;;;;1.03;100.00;98519.72;4328773;33;20214;-80
2020/12/01 05:39:23;;;;;;;40.03;20.83;;;;;;;1.07;100.00;98527.34;4328261;33;20629;-80
2020/12/01 05:42:01;;;;;;;24.40;15.67;;;;;;;1.08;100.00;98517.81;4339887;33;20186;-79
2020/12/01 05:44:31;;;;;;;25.17;13.80;;;;;;;1.25;100.00;98518.03;4329151;33;20178;-79
2020/12/01 05:47:08;;;;;;;33.67;17.40;;;;;;;1.33;100.00;98515.97;4321448;33;20174;-79
2020/12/01 05:49:42;;;;;;;37.67;19.70;;;;;;;1.40;100.00;98519.19;4329137;33;20206;-80
2020/12/01 05:52:20;;;;;;;29.73;17.97;;;;;;;1.36;100.00;98531.47;4329880;33;20179;-79
2020/12/01 05:55:02;;;;;;;33.77;17.40;;;;;;;1.42;100.00;98526.03;4329890;33;20176;-79
2020/12/01 05:57:29;;;;;;;36.83;19.33;;;;;;;1.43;100.00;98522.50;4328328;33;20204;-79
2020/12/01 06:00:03;;;;;;;29.40;16.70;;;;;;;1.24;100.00;98528.47;4322547;33;20972;-79
2020/12/01 06:02:47;;;;;;;25.53;14.10;;;;;;;1.34;100.00;98522.87;4329613;33;20192;-79
2020/12/01 06:05:20;;;;;;;35.10;19.10;;;;;;;1.37;100.00;98533.19;4319299;33;20707;-79
2020/12/01 06:07:49;;;;;;;31.20;18.90;;;;;;;1.20;100.00;98525.16;4320885;33;20198;-79
2020/12/01 06:10:27;;;;;;;27.37;15.83;;;;;;;1.28;100.00;98527.47;4328923;33;20210;-79
2020/12/01 06:13:11;;;;;;;25.47;16.27;;;;;;;1.36;100.00;98521.06;4320505;33;20190;-79
2020/12/01 06:15:53;;;;;;;36.07;19.13;;;;;;;1.32;100.00;98522.06;4316135;33;20502;-79
2020/12/01 06:18:28;;;;;;;23.50;14.23;;;;;;;1.26;100.00;98517.13;4318573;33;20612;-76
2020/12/01 06:21:06;;;;;;;22.97;13.40;;;;;;;1.37;100.00;98517.56;4307378;33;20514;-78
2020/12/01 06:24:00;;;;;;;23.73;13.93;;;;;;;1.47;100.00;98525.84;4334239;33;20180;-80
2020/12/01 06:27:05;;;;;;;23.07;13.50;;;;;;;1.49;100.00;98516.22;4322546;33;20169;-78
2020/12/01 06:30:06;;;;;;;19.87;12.63;;;;;;;1.49;100.00;98511.88;4325125;33;20209;-78
2020/12/01 06:33:08;;;;;;;29.73;17.37;;;;;;;1.54;100.00;98514.31;4329604;33;20632;-78
2020/12/01 06:36:15;;;;;;;24.90;15.20;;;;;;;1.52;100.00;98514.34;4327357;33;20230;-78
2020/12/01 06:38:54;;;;;;;26.43;15.40;;;;;;;1.55;100.00;98513.38;4329627;33;20172;-78
2020/12/01 06:41:24;;;;;;;25.40;14.60;;;;;;;1.56;100.00;98515.94;4326311;33;20251;-78
2020/12/01 06:43:55;;;;;;;30.30;17.97;;;;;;;1.58;100.00;98516.72;4328132;33;20160;-78
2020/12/01 06:50:05;;;;;;;33.70;18.77;;;;;;;1.55;100.00;98515.97;4294908;33;20214;-78
2020/12/01 06:52:33;;;;;;;43.90;23.50;;;;;;;1.48;100.00;98511.94;4318034;33;20157;-78
2020/12/01 06:58:22;;;;;;;50.03;25.57;;;;;;;1.41;100.00;98513.91;4328883;33;20218;-78
2020/12/01 07:04:33;;;;;;;40.53;23.50;;;;;;;1.36;100.00;98517.59;4293546;33;20270;-78
2020/12/01 07:07:15;;;;;;;39.63;22.20;;;;;;;1.20;100.00;98506.94;4286207;33;20169;-78
2020/12/01 07:09:48;;;;;;;34.93;21.10;;;;;;;1.13;100.00;98510.66;4286182;33;20184;-78
2020/12/01 07:15:42;;;;;;;29.37;17.73;;;;;;;1.29;100.00;98517.00;4287722;33;20181;-78
2020/12/01 07:18:21;;;;;;;44.97;23.80;;;;;;;1.40;100.00;98514.84;4286150;33;20151;-78
2020/12/01 07:21:16;;;;;;;51.40;28.97;;;;;;;1.39;100.00;98513.13;4285924;33;20169;-78
2020/12/01 07:24:09;;;;;;;36.83;21.67;;;;;;;1.09;100.00;98509.94;4281241;33;20169;-77
2020/12/01 07:26:42;;;;;;;38.80;21.13;;;;;;;1.17;100.00;98504.47;4271221;33;20645;-78
2020/12/01 07:29:54;;;;;;;41.53;21.90;;;;;;;1.23;100.00;98506.84;4299666;33;20223;-78
2020/12/01 07:32:25;;;;;;;30.03;18.23;;;;;;;1.12;100.00;98511.59;4329615;33;20176;-77
2020/12/01 08:05:04;;;;;;;38.73;21.00;;;;;;;1.12;100.00;98520.22;4314124;32;20240;-78
2020/12/01 08:07:32;;;;;;;40.40;22.43;;;;;;;1.11;100.00;98523.75;4337618;32;20253;-78
2020/12/01 08:10:05;;;;;;;46.00;22.73;;;;;;;1.03;100.00;98525.78;4330602;33;20168;-78
2020/12/01 08:12:36;;;;;;;39.20;22.23;;;;;;;1.02;100.00;98531.88;4335117;33;20186;-78
2020/12/01 08:15:05;;;;;;;42.40;24.57;;;;;;;1.10;100.00;98531.59;4345878;33;20189;-78
2020/12/01 08:17:36;;;;;;;34.03;20.40;;;;;;;1.12;100.00;98533.22;4340750;32;20254;-78
2020/12/01 08:20:06;;;;;;;46.20;27.07;;;;;;;1.33;100.00;98538.53;4332203;33;20168;-78
2020/12/01 08:23:02;;;;;;;42.63;25.63;;;;;;;1.32;100.00;98534.25;4327555;33;20198;-78
2020/12/01 08:25:47;;;;;;;36.00;22.03;;;;;;;1.36;100.00;98534.06;4344276;33;20178;-77
2020/12/01 08:28:22;;;;;;;42.03;21.87;;;;;;;1.38;100.00;98537.47;4318051;33;20658;-77
2020/12/01 08:30:58;;;;;;;43.03;22.40;;;;;;;1.20;100.00;98525.16;4320288;33;20183;-77
2020/12/01 08:33:37;;;;;;;45.47;23.13;;;;;;;1.10;100.00;98529.00;4332676;33;20159;-78
2020/12/01 08:36:18;;;;;;;30.67;18.17;;;;;;;1.31;100.00;98535.16;4345568;33;20226;-78
2020/12/01 08:38:59;;;;;;;35.03;19.63;;;;;;;1.39;100.00;98528.75;4335910;33;20647;-77
2020/12/01 08:41:44;;;;;;;35.67;19.27;;;;;;;1.53;100.00;98541.25;4328842;33;20189;-78
2020/12/01 08:44:29;;;;;;;35.33;20.33;;;;;;;1.59;100.00;98528.00;4330627;33;20148;-78
2020/12/01 08:46:57;;;;;;;36.83;21.30;;;;;;;1.48;100.00;98532.75;4316792;33;20500;-78
2020/12/01 08:49:40;;;;;;;39.40;21.93;;;;;;;1.47;100.00;98537.13;4326314;33;20261;-78
2020/12/01 08:52:42;;;;;;;27.00;17.10;;;;;;;1.41;100.00;98528.69;4330678;33;20171;-78
2020/12/01 08:55:27;;;;;;;32.07;18.40;;;;;;;1.58;100.00;98534.94;4284821;33;20155;-78
2020/12/01 08:58:14;;;;;;;33.47;18.60;;;;;;;1.61;100.00;98545.25;4292250;33;20160;-78
2020/12/01 09:01:00;;;;;;;36.73;20.60;;;;;;;1.62;100.00;98551.31;4269468;33;20189;-78
2020/12/01 09:03:29;;;;;;;42.13;21.50;;;;;;;1.44;100.00;98541.59;4269943;33;20535;-79
2020/12/01 09:05:57;;;;;;;39.77;20.20;;;;;;;1.36;100.00;98544.50;4298693;33;20161;-78
2020/12/01 09:14:14;;;;;;;45.27;22.53;;;;;;;1.33;100.00;98547.22;4290716;33;20273;-79
2020/12/01 09:16:57;;;;;;;36.90;19.57;;;;;;;1.28;100.00;98546.53;4278046;33;20166;-78
2020/12/01 09:19:51;;;;;;;29.60;16.13;;;;;;;1.39;100.00;98549.59;4274824;33;20198;-78
2020/12/01 09:22:27;;;;;;;28.03;16.43;;;;;;;1.55;100.00;98548.09;4272274;33;20180;-77
2020/12/01 09:25:07;;;;;;;45.57;21.53;;;;;;;1.73;100.00;98555.19;4277356;33;20196;-78
2020/12/01 09:27:35;;;;;;;38.47;21.70;;;;;;;1.59;100.00;98557.47;4334390;33;20181;-77
2020/12/01 09:30:04;;;;;;;53.57;25.17;;;;;;;1.52;100.00;98558.63;4318402;33;20196;-78
2020/12/01 09:32:31;;;;;;;60.20;27.00;;;;;;;1.38;100.00;98552.22;4341971;33;20243;-77
2020/12/01 09:35:17;;;;;;;60.17;26.90;;;;;;;1.27;100.00;98557.00;4347483;33;20162;-77
2020/12/01 09:37:44;;;;;;;62.23;26.57;;;;;;;1.28;100.00;98562.16;4336961;33;20231;-78
2020/12/01 09:40:12;;;;;;;49.37;26.27;;;;;;;1.27;100.00;98564.78;4333077;33;20152;-77
2020/12/01 09:42:40;;;;;;;61.43;26.53;;;;;;;1.37;100.00;98561.81;4327453;33;20199;-79
2020/12/01 09:45:28;;;;;;;44.13;24.37;;;;;;;1.46;100.00;98566.66;4318092;33;20157;-77
2020/12/01 09:47:59;;;;;;;63.73;26.03;;;;;;;1.60;100.00;98564.38;4326300;33;20702;-77
2020/12/01 09:50:29;;;;;;;52.73;25.83;;;;;;;1.52;100.00;98565.56;4330971;33;20171;-77
2020/12/01 09:56:02;;;;;;;50.10;24.20;;;;;;;1.60;100.00;98568.75;4316536;33;20274;-77
2020/12/01 10:51:53;;;;;;;41.97;21.83;;;;;;;1.80;100.00;98576.63;4349247;32;22109;-80
2020/12/01 10:54:22;;;;;;;44.47;25.73;;;;;;;1.88;100.00;98569.34;4322174;33;20310;-78
2020/12/01 10:57:00;;;;;;;46.60;27.73;;;;;;;1.81;100.00;98574.88;4333142;33;20179;-78
2020/12/01 10:59:27;;;;;;;46.20;28.33;;;;;;;1.92;100.00;98572.69;4332694;33;20186;-78
2020/12/01 11:01:58;;;;;;;43.50;25.20;;;;;;;1.94;100.00;98570.91;4323649;33;20203;-78
2020/12/01 11:04:25;;;;;;;44.30;24.40;;;;;;;1.92;100.00;98572.69;4332070;33;20211;-79
2020/12/01 11:07:03;;;;;;;42.50;24.70;;;;;;;1.92;100.00;98570.09;4331784;33;20177;-78
2020/12/01 11:09:31;;;;;;;43.13;24.93;;;;;;;1.92;100.00;98564.88;4325774;33;20164;-80
2020/12/01 11:11:59;;;;;;;41.27;24.73;;;;;;;1.97;100.00;98574.19;4331124;33;20191;-78
2020/12/01 11:14:27;;;;;;;33.43;20.70;;;;;;;2.02;100.00;98569.66;4328982;33;20240;-77
2020/12/01 11:16:54;;;;;;;33.07;19.07;;;;;;;2.14;100.00;98571.78;4335010;33;20307;-78
2020/12/01 11:20:05;;;;;;;34.33;20.10;;;;;;;2.23;100.00;98570.56;4331838;33;20170;-79
2020/12/01 11:22:33;;;;;;;32.23;18.93;;;;;;;2.12;100.00;98572.75;4330768;33;20546;-78
2020/12/01 11:25:01;;;;;;;39.47;22.70;;;;;;;2.15;100.00;98575.22;4324969;33;20164;-78
2020/12/01 11:27:29;;;;;;;26.50;17.50;;;;;;;2.23;100.00;98565.34;4323342;33;20248;-79
2020/12/01 11:29:56;;;;;;;37.07;21.67;;;;;;;2.31;100.00;98576.28;4330494;33;20184;-78
2020/12/01 11:32:23;;;;;;;35.87;21.63;;;;;;;2.37;100.00;98573.44;4330680;33;20156;-78
2020/12/01 11:34:52;;;;;;;41.73;23.27;;;;;;;2.12;100.00;98578.81;4330608;33;20156;-79
2020/12/01 11:37:19;;;;;;;29.00;19.43;;;;;;;2.06;100.00;98571.25;4323093;33;20627;-79
2020/12/01 11:39:54;;;;;;;33.63;21.87;;;;;;;2.18;100.00;98573.38;4316567;33;20181;-78
2020/12/01 11:42:22;;;;;;;36.80;22.60;;;;;;;2.31;100.00;98576.28;4316696;33;20600;-79
2020/12/01 11:44:49;;;;;;;28.33;17.73;;;;;;;2.24;100.00;98582.69;4317721;33;20156;-78
2020/12/01 11:47:17;;;;;;;34.87;21.40;;;;;;;2.41;100.00;98577.63;4318163;33;20163;-78
2020/12/01 11:49:44;;;;;;;27.23;17.50;;;;;;;2.34;100.00;98589.22;4317871;33;20492;-78
2020/12/01 11:52:12;;;;;;;22.40;15.60;;;;;;;2.42;100.00;98575.84;4315814;33;20202;-79
2020/12/01 11:54:43;;;;;;;32.80;22.10;;;;;;;2.51;100.00;98576.31;4344734;33;20163;-78
2020/12/01 11:57:10;;;;;;;36.20;21.10;;;;;;;2.43;100.00;98585.38;4340536;33;20169;-78
2020/12/01 11:59:38;;;;;;;26.97;17.37;;;;;;;2.27;100.00;98582.56;4321330;33;20164;-79
2020/12/01 12:02:18;;;;;;;39.77;23.50;;;;;;;2.27;100.00;98588.59;4317721;33;20628;-78
2020/12/01 12:04:55;;;;;;;29.43;20.50;;;;;;;2.25;100.00;98589.56;4315320;33;20169;-78
2020/12/01 12:07:52;;;;;;;43.87;23.53;;;;;;;2.25;100.00;98581.75;4315848;33;20168;-78
2020/12/01 12:10:20;;;;;;;34.00;22.57;;;;;;;2.09;100.00;98583.28;4318534;33;20163;-79
2020/12/01 12:12:48;;;;;;;38.03;23.33;;;;;;;2.15;100.00;98588.25;4332483;33;20157;-79
2020/12/01 12:15:32;;;;;;;34.77;22.63;;;;;;;2.20;100.00;98591.53;4332641;33;20518;-80
2020/12/01 12:18:01;;;;;;;39.07;24.17;;;;;;;2.24;100.00;98588.75;4327000;33;20667;-78
2020/12/01 12:38:28;;;;;;;44.37;25.33;;;;;;;2.07;100.00;98582.53;4334257;32;20270;-79
2020/12/01 12:41:01;;;;;;;49.07;27.10;;;;;;;2.18;100.00;98577.72;4328875;33;20219;-78
2020/12/01 12:43:29;;;;;;;42.97;24.43;;;;;;;2.27;100.00;98572.12;4332646;33;20197;-77
2020/12/01 12:45:57;;;;;;;41.57;25.20;;;;;;;2.26;100.00;98570.44;4328738;33;20562;-79
2020/12/01 12:48:27;;;;;;;46.10;23.10;;;;;;;2.27;100.00;98572.12;4335061;33;20206;-78
2020/12/01 12:50:55;;;;;;;38.67;22.20;;;;;;;2.19;100.00;98569.81;4342698;33;20188;-78
2020/12/01 12:53:23;;;;;;;35.67;20.37;;;;;;;2.33;100.00;98577.94;4345328;33;20229;-78
2020/12/01 12:55:51;;;;;;;34.67;20.87;;;;;;;2.26;100.00;98568.69;4344864;33;20609;-78
2020/12/01 12:58:19;;;;;;;28.90;17.43;;;;;;;2.28;100.00;98566.00;4356797;33;20720;-78
2020/12/01 13:00:46;;;;;;;30.63;18.37;;;;;;;2.31;100.00;98571.09;4344334;33;20203;-79
2020/12/01 13:03:13;;;;;;;31.03;19.10;;;;;;;2.47;100.00;98568.72;4349395;33;20189;-78
2020/12/01 13:05:40;;;;;;;31.50;19.37;;;;;;;2.46;100.00;98575.69;4331142;33;20226;-80
2020/12/01 13:08:16;;;;;;;31.20;17.20;;;;;;;2.38;100.00;98569.09;4325251;33;20209;-78
2020/12/01 13:10:43;;;;;;;24.43;16.57;;;;;;;2.43;100.00;98578.41;4339293;33;20190;-78
2020/12/01 13:13:12;;;;;;;29.57;18.40;;;;;;;2.59;100.00;98579.47;4335861;33;20203;-77
2020/12/01 13:15:39;;;;;;;25.07;17.43;;;;;;;2.46;100.00;98580.03;4351691;27;20192;-76
2020/12/01 13:18:13;;;;;;;31.67;19.53;;;;;;;2.38;100.00;98580.38;4333452;33;20171;-75
2020/12/01 13:20:40;;;;;;;26.83;17.37;;;;;;;2.31;100.00;98578.91;4335116;33;20638;-78
2020/12/01 13:23:08;;;;;;;20.83;14.07;;;;;;;2.31;100.00;98584.13;4332089;33;20199;-77
2020/12/01 13:25:35;;;;;;;25.70;16.60;;;;;;;2.45;100.00;98586.16;4316228;33;20194;-76
2020/12/01 13:28:03;;;;;;;29.07;18.60;;;;;;;2.54;100.00;98588.38;4311757;33;20276;-78
2020/12/01 13:30:31;;;;;;;29.60;18.03;;;;;;;2.54;100.00;98584.03;4308419;33;20678;-77
2020/12/01 13:33:00;;;;;;;31.57;19.00;;;;;;;2.49;100.00;98585.13;4313026;33;20794;-76
2020/12/01 13:35:27;;;;;;;34.30;19.43;;;;;;;2.29;100.00;98586.81;4314143;33;20183;-76
2020/12/01 13:37:55;;;;;;;27.30;17.30;;;;;;;2.25;100.00;98589.56;4312219;33;20172;-76
2020/12/01 13:40:23;;;;;;;35.83;19.93;;;;;;;2.23;100.00;98594.00;4321356;33;20234;-75
2020/12/01 13:42:59;;;;;;;31.53;18.10;;;;;;;2.18;100.00;98593.34;4329013;33;20153;-78
2020/12/01 13:45:33;;;;;;;32.57;19.00;;;;;;;2.11;100.00;98591.87;4331252;33;20160;-77
2020/12/01 13:48:01;;;;;;;41.20;21.17;;;;;;;2.00;100.00;98587.12;4338719;33;20475;-79
2020/12/01 13:50:30;;;;;;;47.83;26.97;;;;;;;1.99;100.00;98593.25;4338100;33;20156;-80
2020/12/01 14:01:56;;;;;;;41.87;20.93;;;;;;;2.00;100.00;98604.50;4490062;27;20203;-78
2020/12/01 14:04:24;;;;;;;38.50;19.77;;;;;;;1.94;100.00;98602.16;4355405;32;20277;-76
2020/12/01 14:06:53;;;;;;;38.63;19.90;;;;;;;1.97;100.00;98602.00;4367055;32;20329;-78
2020/12/01 14:09:20;;;;;;;38.87;21.27;;;;;;;1.94;100.00;98605.59;4367099;32;20237;-78
2020/12/01 14:11:49;;;;;;;42.20;21.57;;;;;;;1.93;100.00;98605.66;4363958;32;20167;-79
2020/12/01 14:14:16;;;;;;;37.93;21.23;;;;;;;1.87;100.00;98604.16;4356819;32;20191;-78
2020/12/01 14:16:44;;;;;;;36.57;21.20;;;;;;;1.91;100.00;98610.91;4347710;32;20237;-78
2020/12/01 14:19:12;;;;;;;41.60;21.83;;;;;;;2.00;100.00;98602.75;4350548;32;20171;-77
2020/12/01 14:21:39;;;;;;;33.83;20.00;;;;;;;1.95;100.00;98606.44;4354447;33;20163;-78
2020/12/01 14:24:07;;;;;;;37.80;20.67;;;;;;;2.01;100.00;98611.41;4367481;32;20260;-78
2020/12/01 14:26:34;;;;;;;28.07;16.73;;;;;;;2.05;100.00;98607.81;4368684;32;20164;-78
2020/12/01 14:29:03;;;;;;;34.00;20.23;;;;;;;2.13;100.00;98613.56;4343184;33;20708;-78
2020/12/01 14:31:30;;;;;;;26.97;18.50;;;;;;;2.05;100.00;98613.84;4356498;33;20183;-77
2020/12/01 14:34:00;;;;;;;29.90;17.83;;;;;;;2.21;100.00;98619.31;4356670;32;20175;-77
2020/12/01 14:36:33;;;;;;;30.47;18.77;;;;;;;2.30;100.00;98624.16;4351373;32;20278;-77
2020/12/01 14:39:01;;;;;;;31.83;19.67;;;;;;;2.23;100.00;98625.28;4379574;32;20218;-77
2020/12/01 14:41:35;;;;;;;29.77;19.60;;;;;;;2.30;100.00;98632.78;4400584;27;20274;-75
2020/12/01 14:44:03;;;;;;;28.77;17.23;;;;;;;2.37;100.00;98630.81;4359929;32;20197;-75
2020/12/01 14:46:54;;;;;;;33.10;20.30;;;;;;;2.33;100.00;98640.50;4354338;33;20211;-74
2020/12/01 14:49:26;;;;;;;33.40;19.40;;;;;;;2.25;100.00;98636.50;4354096;33;20163;-74
2020/12/01 14:52:06;;;;;;;30.63;19.73;;;;;;;2.25;100.00;98634.75;4360036;33;20238;-74
2020/12/01 14:55:18;;;;;;;30.30;19.27;;;;;;;2.14;100.00;98638.69;4326988;33;20287;-74
2020/12/01 14:58:22;;;;;;;32.73;19.67;;;;;;;2.25;100.00;98636.50;4327922;33;20649;-75
2020/12/01 15:01:01;;;;;;;28.97;18.43;;;;;;;2.21;100.00;98632.34;4279580;33;20176;-76
2020/12/01 15:03:53;;;;;;;29.53;18.70;;;;;;;2.23;100.00;98638.31;4344000;33;20168;-75
2020/12/01 15:07:06;;;;;;;29.33;18.20;;;;;;;2.28;100.00;98641.59;4344254;33;20218;-75
2020/12/01 15:10:09;;;;;;;26.60;17.30;;;;;;;2.21;100.00;98640.16;4338432;33;20653;-75
2020/12/01 15:12:42;;;;;;;27.80;17.70;;;;;;;2.22;100.00;98636.63;4324810;33;20168;-75
2020/12/01 15:15:15;;;;;;;30.37;18.10;;;;;;;2.17;100.00;98642.03;4318947;33;20570;-77
2020/12/01 15:17:43;;;;;;;27.57;17.13;;;;;;;2.23;100.00;98643.53;4318899;33;20257;-75
2020/12/01 15:20:14;;;;;;;30.90;18.07;;;;;;;2.24;100.00;98646.09;4333342;33;20275;-78
2020/12/01 15:23:03;;;;;;;25.30;16.23;;;;;;;2.14;100.00;98649.09;4327528;33;20164;-75
2020/12/01 15:25:33;;;;;;;32.27;18.17;;;;;;;2.04;100.00;98643.44;4327675;33;20195;-75
2020/12/01 15:28:12;;;;;;;24.17;16.67;;;;;;;2.05;100.00;98646.88;4333352;33;20564;-77
2020/12/01 15:30:39;;;;;;;27.53;16.87;;;;;;;2.05;100.00;98652.94;4324017;32;20254;-75
2020/12/01 15:33:11;;;;;;;28.20;17.77;;;;;;;2.05;100.00;98650.31;4331274;33;20164;-75
2020/12/01 15:35:41;;;;;;;32.27;18.27;;;;;;;2.03;100.00;98651.28;4325064;33;20536;-78
2020/12/01 15:38:16;;;;;;;29.13;17.67;;;;;;;1.95;100.00;98653.34;4323322;33;20219;-76
2020/12/01 15:40:52;;;;;;;31.60;17.67;;;;;;;1.94;100.00;98656.88;4332378;32;20256;-78
2020/12/01 15:43:35;;;;;;;27.30;17.07;;;;;;;1.90;100.00;98665.72;4336989;32;20194;-75